createdAt,value
2018-04-23T00:01:05.082Z,16.70
2018-04-23T00:03:32.595Z,16.50
2018-04-23T00:06:00.078Z,16.40
2018-04-23T00:08:27.563Z,16.30
2018-04-23T00:10:55.811Z,16.50
2018-04-23T00:13:24.063Z,16.30
2018-04-23T00:15:51.546Z,16.20
2018-04-23T00:18:19.792Z,16.30
2018-04-23T00:20:47.287Z,16.30
2018-04-23T00:23:14.796Z,16.20
2018-04-23T00:25:42.266Z,16.20
2018-04-23T00:28:09.742Z,16.40
2018-04-23T00:30:37.992Z,16.70
2018-04-23T00:33:05.467Z,16.70
2018-04-23T00:35:32.939Z,16.80
2018-04-23T00:38:00.446Z,17.00
2018-04-23T00:40:27.931Z,16.90
2018-04-23T00:42:55.406Z,16.70
2018-04-23T00:45:22.895Z,16.80
2018-04-23T00:47:50.403Z,16.70
2018-04-23T00:50:17.889Z,16.40
2018-04-23T00:52:45.392Z,16.50
2018-04-23T00:55:12.869Z,16.50
2018-04-23T00:57:40.345Z,16.70
2018-04-23T01:00:08.611Z,17.00
2018-04-23T01:02:36.082Z,16.90
2018-04-23T01:05:04.323Z,17.10
2018-04-23T01:07:31.801Z,17.10
2018-04-23T01:09:59.257Z,17.20
2018-04-23T01:12:26.709Z,17.10
2018-04-23T01:14:54.180Z,17.20
2018-04-23T01:17:21.625Z,17.20
2018-04-23T01:19:49.094Z,17.30
2018-04-23T01:22:16.559Z,17.30
2018-04-23T01:24:44.017Z,17.20
2018-04-23T01:27:11.473Z,17.30
2018-04-23T01:29:38.934Z,17.30
2018-04-23T01:32:07.131Z,17.30
2018-04-23T01:34:34.593Z,17.30
2018-04-23T01:37:02.034Z,17.30
2018-04-23T01:39:29.486Z,17.30
2018-04-23T01:41:57.701Z,17.30
2018-04-23T01:44:25.164Z,17.30
2018-04-23T01:46:52.621Z,17.30
2018-04-23T01:49:20.079Z,17.30
2018-04-23T01:51:47.537Z,17.30
2018-04-23T01:54:14.986Z,17.30
2018-04-23T01:56:42.440Z,17.30
2018-04-23T01:59:09.898Z,17.20
2018-04-23T02:01:37.325Z,17.30
2018-04-23T02:04:05.538Z,17.30
2018-04-23T02:06:32.986Z,17.20
2018-04-23T02:09:00.476Z,17.20
2018-04-23T02:11:27.913Z,17.20
2018-04-23T02:13:55.375Z,17.10
2018-04-23T02:16:22.821Z,17.20
2018-04-23T02:18:50.304Z,17.10
2018-04-23T02:21:17.762Z,17.20
2018-04-23T02:23:45.249Z,17.20
2018-04-23T02:26:12.718Z,17.20
2018-04-23T02:28:40.933Z,17.20
2018-04-23T02:31:08.411Z,17.20
2018-04-23T02:33:35.869Z,17.20
2018-04-23T02:36:03.351Z,17.20
2018-04-23T02:38:31.611Z,17.10
2018-04-23T02:40:59.074Z,17.10
2018-04-23T02:43:26.527Z,17.10
2018-04-23T02:45:53.977Z,17.10
2018-04-23T02:48:21.448Z,17.00
2018-04-23T02:50:48.928Z,17.00
2018-04-23T02:53:17.171Z,16.90
2018-04-23T02:55:44.648Z,16.90
2018-04-23T02:58:12.869Z,16.80
2018-04-23T03:00:40.327Z,16.80
2018-04-23T03:03:07.788Z,16.80
2018-04-23T03:05:35.263Z,16.80
2018-04-23T03:08:02.706Z,16.80
2018-04-23T03:10:30.176Z,16.80
2018-04-23T03:12:57.634Z,16.80
2018-04-23T03:15:25.111Z,16.70
2018-04-23T03:17:52.570Z,16.70
2018-04-23T03:20:20.026Z,16.60
2018-04-23T03:22:47.486Z,16.60
2018-04-23T03:25:15.737Z,16.60
2018-04-23T03:27:43.192Z,16.50
2018-04-23T03:30:10.657Z,16.50
2018-04-23T03:32:38.136Z,16.50
2018-04-23T03:35:05.594Z,16.50
2018-04-23T03:37:33.054Z,16.50
2018-04-23T03:40:00.508Z,16.40
2018-04-23T03:42:27.946Z,16.40
2018-04-23T03:44:55.424Z,16.30
2018-04-23T03:47:22.858Z,16.30
2018-04-23T03:49:50.314Z,16.30
2018-04-23T03:52:17.782Z,15.90
2018-04-23T03:54:45.233Z,15.90
2018-04-23T03:57:12.686Z,15.90
2018-04-23T03:59:40.185Z,15.90
2018-04-23T04:02:08.399Z,16.00
2018-04-23T04:04:35.878Z,16.00
2018-04-23T04:07:03.330Z,16.00
2018-04-23T04:09:30.775Z,16.00
2018-04-23T04:15:15.470Z,16.00
2018-04-23T04:20:56.669Z,16.00
2018-04-23T04:23:24.128Z,16.00
2018-04-23T04:25:51.571Z,16.00
2018-04-23T04:28:19.014Z,15.90
2018-04-23T04:30:46.510Z,15.90
2018-04-23T04:33:13.952Z,15.90
2018-04-23T04:35:41.464Z,15.90
2018-04-23T04:38:08.879Z,15.90
2018-04-23T04:40:36.333Z,15.90
2018-04-23T04:43:03.798Z,15.90
2018-04-23T04:45:31.232Z,16.10
2018-04-23T04:47:58.693Z,16.30
2018-04-23T04:50:26.172Z,16.30
2018-04-23T04:52:53.624Z,16.40
2018-04-23T04:55:21.134Z,16.00
2018-04-23T04:57:48.604Z,16.00
2018-04-23T05:00:16.056Z,16.10
2018-04-23T05:02:43.533Z,16.20
2018-04-23T05:05:11.015Z,16.40
2018-04-23T05:07:38.496Z,16.30
2018-04-23T05:10:06.699Z,16.20
2018-04-23T05:12:34.180Z,16.20
2018-04-23T05:15:01.637Z,16.00
2018-04-23T05:17:29.095Z,15.50
2018-04-23T05:19:56.533Z,15.00
2018-04-23T05:22:23.984Z,14.80
2018-04-23T05:24:51.428Z,15.00
2018-04-23T05:27:19.637Z,15.10
2018-04-23T05:29:47.096Z,15.10
2018-04-23T05:32:14.553Z,15.10
2018-04-23T05:34:42.027Z,15.20
2018-04-23T05:37:09.482Z,15.20
2018-04-23T05:39:36.959Z,15.20
2018-04-23T05:42:04.429Z,15.20
2018-04-23T05:44:31.874Z,15.20
2018-04-23T05:46:59.342Z,15.20
2018-04-23T05:49:27.574Z,15.20
2018-04-23T05:51:55.067Z,15.20
2018-04-23T05:54:22.556Z,15.20
2018-04-23T05:56:50.010Z,15.30
2018-04-23T05:59:17.470Z,15.40
2018-04-23T06:01:44.934Z,15.20
2018-04-23T06:04:12.379Z,15.20
2018-04-23T06:06:39.863Z,15.40
2018-04-23T06:09:07.317Z,15.40
2018-04-23T06:11:34.798Z,15.50
2018-04-23T06:14:02.269Z,15.50
2018-04-23T06:16:29.747Z,15.50
2018-04-23T06:18:57.208Z,15.50
2018-04-23T06:21:25.444Z,15.60
2018-04-23T06:23:52.901Z,15.50
2018-04-23T06:26:20.350Z,15.60
2018-04-23T06:28:47.794Z,15.70
2018-04-23T06:31:15.262Z,15.80
2018-04-23T06:33:42.713Z,15.80
2018-04-23T06:36:10.177Z,15.90
2018-04-23T06:38:37.629Z,16.10
2018-04-23T06:41:05.090Z,16.00
2018-04-23T06:43:33.334Z,16.40
2018-04-23T06:46:00.793Z,16.40
2018-04-23T06:48:28.259Z,16.70
2018-04-23T06:50:55.709Z,16.70
2018-04-23T06:53:23.167Z,16.50
2018-04-23T06:55:50.610Z,16.40
2018-04-23T06:58:18.068Z,16.40
2018-04-23T07:00:46.308Z,16.10
2018-04-23T07:03:13.771Z,16.10
2018-04-23T07:05:41.263Z,16.00
2018-04-23T07:08:09.473Z,16.00
2018-04-23T07:10:36.962Z,16.10
2018-04-23T07:13:04.423Z,16.10
2018-04-23T07:15:31.882Z,16.20
2018-04-23T07:17:59.403Z,16.30
2018-04-23T07:20:26.878Z,16.40
2018-04-23T07:22:54.339Z,16.40
2018-04-23T07:25:21.795Z,16.30
2018-04-23T07:27:49.239Z,16.30
2018-04-23T07:30:16.699Z,16.40
2018-04-23T07:32:44.155Z,16.50
2018-04-23T07:35:11.603Z,16.50
2018-04-23T07:37:39.086Z,16.50
2018-04-23T07:40:06.529Z,16.60
2018-04-23T07:42:33.990Z,16.60
2018-04-23T07:45:01.450Z,16.60
2018-04-23T07:47:28.913Z,16.60
2018-04-23T07:49:56.358Z,16.70
2018-04-23T07:52:23.813Z,16.90
2018-04-23T07:54:51.270Z,17.00
2018-04-23T07:57:18.738Z,17.50
2018-04-23T07:59:46.186Z,17.70
2018-04-23T08:02:13.632Z,18.00
2018-04-23T08:04:41.107Z,18.50
2018-04-23T08:07:08.563Z,18.70
2018-04-23T08:09:36.035Z,18.60
2018-04-23T08:12:03.478Z,18.60
2018-04-23T08:14:30.969Z,18.90
2018-04-23T08:16:58.401Z,19.30
2018-04-23T08:19:25.855Z,19.50
2018-04-23T08:21:53.311Z,19.80
2018-04-23T08:24:20.761Z,19.80
2018-04-23T08:26:48.214Z,20.10
2018-04-23T08:29:15.696Z,20.30
2018-04-23T08:31:43.186Z,20.10
2018-04-23T08:34:11.431Z,20.10
2018-04-23T08:36:38.882Z,20.00
2018-04-23T08:39:06.366Z,20.20
2018-04-23T08:41:33.798Z,20.30
2018-04-23T08:44:01.282Z,20.50
2018-04-23T08:46:29.497Z,21.30
2018-04-23T08:48:56.975Z,21.30
2018-04-23T08:51:24.429Z,21.80
2018-04-23T08:53:51.891Z,21.60
2018-04-23T08:56:19.345Z,21.30
2018-04-23T08:58:46.814Z,21.70
2018-04-23T09:01:14.266Z,21.60
2018-04-23T09:03:41.713Z,21.90
2018-04-23T09:06:09.166Z,21.50
2018-04-23T09:08:36.646Z,21.60
2018-04-23T09:11:04.093Z,21.90
2018-04-23T09:13:31.587Z,22.40
2018-04-23T09:15:59.802Z,22.40
2018-04-23T09:18:27.265Z,22.40
2018-04-23T09:20:54.718Z,21.70
2018-04-23T09:23:22.194Z,20.90
2018-04-23T09:25:49.650Z,20.40
2018-04-23T09:28:17.126Z,20.50
2018-04-23T09:30:44.582Z,20.30
2018-04-23T09:33:12.055Z,20.50
2018-04-23T09:35:39.502Z,21.20
2018-04-23T09:38:06.937Z,20.50
2018-04-23T09:40:34.404Z,20.50
2018-04-23T09:43:01.845Z,21.00
2018-04-23T09:45:29.305Z,20.90
2018-04-23T09:47:56.797Z,21.20
2018-04-23T09:50:24.262Z,21.10
2018-04-23T09:52:51.727Z,21.00
2018-04-23T09:55:19.969Z,20.70
2018-04-23T09:57:47.414Z,20.70
2018-04-23T10:00:14.875Z,21.30
2018-04-23T10:02:42.354Z,21.90
2018-04-23T10:05:09.814Z,22.30
2018-04-23T10:07:37.270Z,22.40
2018-04-23T10:10:04.749Z,22.30
2018-04-23T10:12:32.970Z,21.50
2018-04-23T10:15:00.430Z,21.50
2018-04-23T10:17:27.888Z,21.20
2018-04-23T10:19:55.400Z,21.30
2018-04-23T10:22:22.833Z,21.00
2018-04-23T10:24:50.315Z,20.40
2018-04-23T10:27:17.765Z,20.90
2018-04-23T10:29:46.023Z,20.90
2018-04-23T10:32:13.486Z,20.80
2018-04-23T10:34:40.990Z,20.90
2018-04-23T10:37:08.440Z,20.80
2018-04-23T10:39:35.905Z,20.40
2018-04-23T10:42:03.369Z,20.90
2018-04-23T10:44:30.870Z,20.90
2018-04-23T10:46:58.326Z,21.10
2018-04-23T10:49:25.782Z,22.50
2018-04-23T10:51:53.239Z,23.90
2018-04-23T10:54:20.743Z,23.50
2018-04-23T10:56:48.213Z,22.40
2018-04-23T10:59:15.726Z,21.80
2018-04-23T11:01:43.992Z,21.40
2018-04-23T11:04:11.445Z,21.40
2018-04-23T11:06:38.934Z,21.60
2018-04-23T11:09:07.142Z,21.10
2018-04-23T11:11:34.615Z,21.10
2018-04-23T11:14:02.071Z,21.90
2018-04-23T11:16:29.530Z,22.60
2018-04-23T11:18:56.983Z,21.90
2018-04-23T11:21:24.470Z,21.30
2018-04-23T11:23:51.918Z,21.00
2018-04-23T11:26:19.398Z,20.80
2018-04-23T11:28:47.609Z,20.60
2018-04-23T11:31:15.067Z,20.60
2018-04-23T11:33:42.514Z,20.70
2018-04-23T11:36:09.979Z,20.80
2018-04-23T11:38:37.447Z,20.60
2018-04-23T11:41:04.914Z,20.50
2018-04-23T11:43:32.368Z,20.60
2018-04-23T11:45:59.873Z,20.70
2018-04-23T11:48:27.307Z,20.70
2018-04-23T11:50:54.788Z,20.70
2018-04-23T11:53:23.009Z,20.70
2018-04-23T11:55:50.470Z,20.70
2018-04-23T11:58:17.928Z,21.20
2018-04-23T12:00:45.415Z,21.00
2018-04-23T12:03:12.869Z,21.00
2018-04-23T12:05:40.333Z,21.30
2018-04-23T12:08:07.812Z,21.60
2018-04-23T12:10:36.043Z,22.20
2018-04-23T12:13:03.478Z,22.20
2018-04-23T12:15:30.933Z,22.10
2018-04-23T12:17:58.394Z,21.50
2018-04-23T12:20:25.894Z,23.00
2018-04-23T12:22:53.345Z,23.90
2018-04-23T12:25:20.796Z,24.50
2018-04-23T12:27:48.263Z,24.90
2018-04-23T12:30:15.712Z,24.00
2018-04-23T12:32:43.166Z,23.10
2018-04-23T12:35:10.625Z,22.90
2018-04-23T12:37:38.083Z,22.40
2018-04-23T12:40:05.550Z,21.70
2018-04-23T12:42:33.012Z,21.30
2018-04-23T12:45:00.521Z,21.30
2018-04-23T12:47:28.015Z,21.50
2018-04-23T12:49:55.470Z,21.70
2018-04-23T12:52:22.932Z,21.80
2018-04-23T12:54:50.386Z,21.60
2018-04-23T12:57:17.844Z,21.90
2018-04-23T12:59:45.302Z,22.20
2018-04-23T13:02:12.765Z,22.40
2018-04-23T13:04:40.211Z,22.80
2018-04-23T13:07:07.669Z,22.50
2018-04-23T13:09:35.147Z,22.20
2018-04-23T13:12:02.606Z,22.00
2018-04-23T13:14:30.059Z,21.90
2018-04-23T13:16:57.510Z,22.10
2018-04-23T13:19:24.957Z,21.90
2018-04-23T13:21:52.457Z,21.80
2018-04-23T13:24:20.684Z,22.10
2018-04-23T13:26:48.146Z,22.10
2018-04-23T13:29:15.598Z,21.80
2018-04-23T13:31:43.057Z,21.70
2018-04-23T13:34:10.514Z,21.50
2018-04-23T13:36:37.987Z,21.70
2018-04-23T13:39:06.230Z,21.50
2018-04-23T13:41:33.701Z,21.80
2018-04-23T13:44:01.174Z,21.70
2018-04-23T13:46:28.664Z,21.70
2018-04-23T13:48:56.151Z,21.50
2018-04-23T13:51:23.635Z,21.20
2018-04-23T13:53:51.106Z,21.20
2018-04-23T13:56:18.571Z,21.40
2018-04-23T13:58:46.054Z,21.60
2018-04-23T14:01:13.535Z,21.40
2018-04-23T14:03:41.021Z,21.30
2018-04-23T14:06:08.495Z,21.20
2018-04-23T14:08:35.975Z,21.20
2018-04-23T14:11:03.426Z,21.10
2018-04-23T14:13:30.918Z,21.10
2018-04-23T14:15:58.366Z,21.10
2018-04-23T14:18:25.822Z,21.40
2018-04-23T14:20:53.278Z,21.40
2018-04-23T14:23:20.725Z,21.40
2018-04-23T14:25:48.342Z,21.60
2018-04-23T14:28:15.817Z,21.50
2018-04-23T14:30:43.278Z,21.30
2018-04-23T14:33:10.771Z,21.10
2018-04-23T14:35:38.214Z,20.80
2018-04-23T14:38:06.443Z,20.50
2018-04-23T14:40:33.877Z,20.50
2018-04-23T14:43:01.369Z,20.90
2018-04-23T14:45:28.823Z,21.00
2018-04-23T14:47:56.279Z,21.10
2018-04-23T14:50:23.734Z,21.10
2018-04-23T14:52:51.180Z,21.00
2018-04-23T14:55:18.640Z,20.90
2018-04-23T14:57:46.093Z,20.80
2018-04-23T15:00:13.538Z,21.10
2018-04-23T15:02:41.020Z,21.00
2018-04-23T15:05:08.468Z,20.70
2018-04-23T15:07:35.925Z,20.50
2018-04-23T15:10:03.375Z,20.40
2018-04-23T15:12:30.851Z,20.50
2018-04-23T15:14:58.322Z,20.30
2018-04-23T15:17:25.772Z,20.30
2018-04-23T15:19:53.237Z,20.20
2018-04-23T15:22:20.671Z,20.40
2018-04-23T15:24:48.154Z,20.60
2018-04-23T15:27:15.614Z,20.50
2018-04-23T15:29:43.075Z,20.50
2018-04-23T15:32:10.554Z,20.30
2018-04-23T15:34:38.782Z,20.00
2018-04-23T15:37:06.229Z,20.00
2018-04-23T15:39:33.682Z,20.00
2018-04-23T15:42:01.130Z,20.10
2018-04-23T15:44:28.590Z,19.80
2018-04-23T15:46:56.051Z,19.80
2018-04-23T15:49:23.514Z,19.90
2018-04-23T15:51:50.977Z,19.80
2018-04-23T15:54:18.457Z,19.70
2018-04-23T15:56:45.889Z,19.60
2018-04-23T15:59:13.367Z,19.70
2018-04-23T16:01:40.807Z,19.50
2018-04-23T16:04:08.266Z,19.60
2018-04-23T16:06:35.723Z,19.50
2018-04-23T16:09:06.093Z,19.50
2018-04-23T16:11:33.575Z,19.40
2018-04-23T16:14:01.062Z,19.40
2018-04-23T16:16:28.518Z,19.30
2018-04-23T16:18:55.977Z,19.20
2018-04-23T16:21:23.430Z,19.30
2018-04-23T16:23:50.901Z,19.10
2018-04-23T16:26:18.350Z,18.80
2018-04-23T16:28:45.919Z,18.80
2018-04-23T16:31:13.383Z,18.80
2018-04-23T16:33:40.850Z,18.80
2018-04-23T16:36:08.282Z,18.80
2018-04-23T16:38:35.741Z,18.80
2018-04-23T16:41:03.186Z,18.90
2018-04-23T16:43:30.642Z,19.00
2018-04-23T16:45:58.098Z,19.00
2018-04-23T16:48:25.545Z,19.10
2018-04-23T16:50:53.032Z,18.80
2018-04-23T16:53:20.494Z,18.80
2018-04-23T16:55:47.955Z,18.70
2018-04-23T16:58:15.407Z,18.80
2018-04-23T17:00:42.890Z,18.70
2018-04-23T17:03:10.326Z,18.60
2018-04-23T17:05:37.782Z,18.50
2018-04-23T17:08:05.256Z,18.50
2018-04-23T17:10:32.713Z,18.50
2018-04-23T17:13:00.179Z,18.50
2018-04-23T17:15:28.446Z,18.30
2018-04-23T17:17:56.673Z,18.20
2018-04-23T17:20:24.146Z,18.20
2018-04-23T17:25:24.519Z,18.30
2018-04-23T17:27:51.963Z,18.30
2018-04-23T17:30:19.433Z,18.30
2018-04-23T17:32:46.894Z,18.30
2018-04-23T17:35:14.347Z,18.30
2018-04-23T17:37:41.789Z,18.20
2018-04-23T17:40:09.280Z,18.20
2018-04-23T17:42:36.735Z,18.20
2018-04-23T17:45:04.995Z,18.10
2018-04-23T17:47:32.499Z,18.10
2018-04-23T17:50:00.816Z,18.20
2018-04-23T17:52:28.291Z,18.10
2018-04-23T17:54:55.749Z,18.10
2018-04-23T17:57:23.907Z,18.10
2018-04-23T17:59:51.363Z,18.10
2018-04-23T18:02:18.839Z,18.10
2018-04-23T18:04:46.336Z,18.10
2018-04-23T18:07:13.823Z,18.10
2018-04-23T18:09:41.323Z,18.10
2018-04-23T18:12:09.585Z,17.90
2018-04-23T18:14:37.085Z,17.80
2018-04-23T18:17:05.214Z,18.00
2018-04-23T18:19:32.728Z,17.80
2018-04-23T18:22:00.218Z,17.50
2018-04-23T18:24:27.703Z,17.40
2018-04-23T18:26:55.964Z,17.10
2018-04-23T18:29:23.440Z,17.10
2018-04-23T18:31:51.701Z,17.10
2018-04-23T18:34:19.202Z,17.10
2018-04-23T18:36:46.711Z,17.10
2018-04-23T18:39:14.172Z,17.10
2018-04-23T18:41:41.672Z,16.90
2018-04-23T18:44:09.155Z,16.80
2018-04-23T18:46:36.643Z,16.70
2018-04-23T18:49:04.103Z,16.50
2018-04-23T18:51:31.599Z,16.50
2018-04-23T18:53:59.065Z,16.40
2018-04-23T18:56:26.571Z,16.60
2018-04-23T18:58:54.031Z,16.60
2018-04-23T19:01:22.237Z,16.60
2018-04-23T19:03:49.711Z,16.50
2018-04-23T19:06:17.179Z,16.50
2018-04-23T19:08:45.811Z,16.60
2018-04-23T19:11:13.266Z,16.60
2018-04-23T19:13:40.740Z,16.40
2018-04-23T19:16:08.965Z,16.20
2018-04-23T19:18:36.433Z,16.20
2018-04-23T19:21:04.091Z,16.30
2018-04-23T19:23:31.578Z,16.30
2018-04-23T19:25:59.041Z,16.10
2018-04-23T19:28:26.514Z,15.90
2018-04-23T19:30:54.755Z,16.10
2018-04-23T19:33:22.243Z,16.00
2018-04-23T19:35:50.578Z,16.10
2018-04-23T19:38:17.970Z,16.10
2018-04-23T19:40:46.209Z,15.90
2018-04-23T19:43:13.668Z,15.90
2018-04-23T19:45:41.105Z,15.90
2018-04-23T19:48:08.585Z,15.80
2018-04-23T19:50:36.055Z,15.80
2018-04-23T19:53:03.531Z,15.80
2018-04-23T19:55:31.009Z,15.80
2018-04-23T19:57:59.237Z,15.70
2018-04-23T20:00:26.752Z,15.70
2018-04-23T20:02:54.234Z,15.70
2018-04-23T20:05:21.703Z,15.60
2018-04-23T20:07:49.177Z,15.50
2018-04-23T20:10:16.646Z,15.50
2018-04-23T20:12:44.143Z,15.60
2018-04-23T20:15:11.627Z,15.60
2018-04-23T20:17:39.107Z,15.50
2018-04-23T20:20:06.621Z,15.50
2018-04-23T20:22:34.120Z,15.40
2018-04-23T20:25:01.569Z,15.20
2018-04-23T20:27:30.478Z,15.10
2018-04-23T20:29:57.930Z,14.90
2018-04-23T20:32:25.427Z,15.00
2018-04-23T20:34:53.663Z,14.60
2018-04-23T20:37:23.262Z,14.40
2018-04-23T20:39:50.727Z,14.40
2018-04-23T20:42:18.226Z,14.60
2018-04-23T20:44:45.694Z,14.50
2018-04-23T20:47:13.151Z,14.40
2018-04-23T20:49:40.629Z,14.20
2018-04-23T20:52:08.839Z,14.60
2018-04-23T20:54:36.330Z,14.60
2018-04-23T20:57:08.143Z,14.20
2018-04-23T20:59:36.491Z,14.20
2018-04-23T21:02:04.693Z,13.80
2018-04-23T21:04:32.179Z,13.80
2018-04-23T21:06:59.667Z,13.70
2018-04-23T21:09:27.174Z,13.60
2018-04-23T21:11:54.671Z,13.40
2018-04-23T21:14:22.968Z,13.80
2018-04-23T21:16:50.526Z,13.80
2018-04-23T21:19:18.022Z,13.90
2018-04-23T21:21:45.486Z,13.90
2018-04-23T21:24:13.636Z,14.10
2018-04-23T21:26:44.099Z,14.10
2018-04-23T21:29:11.578Z,14.10
2018-04-23T21:31:39.818Z,13.80
2018-04-23T21:34:08.104Z,13.60
2018-04-23T21:36:36.175Z,13.60
2018-04-23T21:39:03.690Z,13.50
2018-04-23T21:41:31.159Z,13.40
2018-04-23T21:43:58.680Z,13.30
2018-04-23T21:46:26.918Z,12.90
2018-04-23T21:48:54.409Z,12.90
2018-04-23T21:51:21.866Z,12.80
2018-04-23T21:53:50.118Z,12.80
2018-04-23T21:56:17.565Z,12.70
2018-04-23T21:58:45.021Z,12.80
2018-04-23T22:01:12.526Z,12.80
2018-04-23T22:03:39.991Z,12.90
2018-04-23T22:06:07.576Z,13.00
2018-04-23T22:08:35.770Z,13.20
2018-04-23T22:11:03.275Z,13.10
2018-04-23T22:13:31.503Z,12.90
2018-04-23T22:15:58.983Z,12.90
2018-04-23T22:18:26.463Z,12.60
2018-04-23T22:20:54.693Z,12.20
2018-04-23T22:23:22.219Z,12.20
2018-04-23T22:25:49.729Z,12.30
2018-04-23T22:28:17.220Z,12.70
2018-04-23T22:30:44.779Z,13.10
2018-04-23T22:33:12.243Z,13.00
2018-04-23T22:35:39.782Z,12.70
2018-04-23T22:38:08.019Z,12.20
2018-04-23T22:40:35.552Z,12.20
2018-04-23T22:43:03.001Z,12.00
2018-04-23T22:45:30.464Z,12.00
2018-04-23T22:47:57.916Z,11.90
2018-04-23T22:50:25.418Z,11.90
2018-04-23T22:52:52.811Z,11.90
2018-04-23T22:55:21.030Z,11.80
2018-04-23T22:57:48.473Z,11.70
2018-04-23T23:00:15.963Z,11.80
2018-04-23T23:02:43.405Z,11.70
2018-04-23T23:05:10.860Z,11.70
2018-04-23T23:07:38.316Z,11.70
2018-04-23T23:10:05.771Z,11.60
2018-04-23T23:12:33.224Z,11.80
2018-04-23T23:15:00.674Z,11.90
2018-04-23T23:17:28.113Z,12.40
2018-04-23T23:19:55.552Z,12.80
2018-04-23T23:22:23.014Z,12.80
2018-04-23T23:24:50.463Z,12.80
2018-04-23T23:27:18.687Z,13.30
2018-04-23T23:29:46.130Z,13.30
2018-04-23T23:32:14.363Z,13.20
2018-04-23T23:34:42.575Z,13.60
2018-04-23T23:37:10.051Z,13.50
2018-04-23T23:39:37.504Z,13.50
2018-04-23T23:42:04.965Z,12.90
2018-04-23T23:44:32.425Z,11.90
2018-04-23T23:46:59.880Z,11.30
2018-04-23T23:49:28.092Z,12.00
2018-04-23T23:51:55.550Z,12.00
2018-04-23T23:54:23.005Z,11.90
2018-04-23T23:56:50.466Z,12.50
2018-04-23T23:59:17.902Z,12.10
